Latest Coastal Weather Observations for Albion Park

IDN60701

Issued at 4:11 pm EST Tuesday 4 August 2020 (issued every 10 minutes, with the page automatically refreshed every 10 minutes)

About coastal observations | Map of coastal stations | Coastal observations for NSW | Marine services | Other Formats
Station Details ID: 068241 Name: SHELLHARBOUR AIRPORT Lat: -34.56 Lon: 150.79 Height: 8.0 m
Data from the previous 72 hours. | See also: Recent months at Albion Park
Date/Time
EST
Wind Sea
Height
m
Swell Vis
km
Cloud Weather Temp
°C
Press
hPa
Rain since
9am
mm
Dir  Spd
kts
Gust
kts
Height
m
Period
s
Dir
04/04:00pm W 15 22 - - - - 10 Clear - 17.2 1008.3 0.0
04/03:42pm W 15 25 - - - - 10 - - 17.5 1008.1 0.0
04/03:30pm W 19 27 - - - - 10 - - 17.9 1008.1 0.0
04/03:00pm W 16 28 - - - - 10 - - 19.2 1007.9 0.0
04/02:53pm W 20 30 - - - - 10 - - 19.3 1007.7 0.0
04/02:30pm W 20 29 - - - - 10 - - 19.7 1007.4 0.0
04/02:19pm W 15 25 - - - - 10 - - 19.9 1007.4 0.0
04/02:00pm W 19 27 - - - - 10 - - 20.3 1007.3 0.0
04/01:41pm W 15 26 - - - - 10 - - 20.7 1007.1 0.0
04/01:30pm W 16 24 - - - - 10 - - 21.0 1007.2 0.0
04/01:04pm W 21 31 - - - - - - - 21.0 1007.4 0.0
04/01:00pm W 22 31 - - - - - - - 20.7 1007.4 0.0
04/12:42pm W 15 31 - - - - - - - 21.0 1007.4 0.0
04/12:30pm W 13 27 - - - - 10 - - 21.0 1007.7 0.0
04/12:00pm W 14 22 - - - - 10 Partly cloudy - 20.4 1008.1 0.0
04/11:46am W 15 28 - - - - 10 - - 20.2 1008.4 0.0
04/11:30am W 12 19 - - - - 10 - - 20.1 1008.6 0.0
04/11:00am NNW 6 12 - - - - 10 - - 19.9 1009.1 0.0
04/10:30am NNE 6 9 - - - - 10 - - 19.0 1009.5 0.0
04/10:00am NE 7 9 - - - - 10 - - 17.1 1010.2 0.0
04/09:30am NE 5 8 - - - - 10 - - 15.4 1010.5 0.0
04/09:00am NE 6 8 - - - - 10 Cloudy - 14.5 1010.9 0.0
04/08:30am E 4 5 - - - - 10 - - 12.7 1011.1 0.0
04/08:00am NW 2 4 - - - - 10 - - 8.3 1011.1 0.0
04/07:30am W 1 6 - - - - 10 - - 6.2 1011.5 0.0
04/07:00am SW 3 4 - - - - 10 - - 5.9 1011.4 0.0
04/06:30am SW 4 8 - - - - 10 - - 5.5 1011.4 0.0
04/06:00am NW 4 6 - - - - 10 - - 8.9 1011.5 0.0
04/05:30am N 6 8 - - - - 10 - - 11.9 1011.6 0.0
04/05:00am N 5 7 - - - - 10 - - 8.1 1011.5 0.0
04/04:30am SW 4 6 - - - - 10 - - 7.6 1011.7 0.0
04/04:00am NNE 3 5 - - - - 10 - - 8.7 1011.7 0.0
04/03:30am SW 2 4 - - - - 10 - - 9.3 1011.8 0.0
04/03:00am WNW 5 7 - - - - 10 Cloudy - 12.3 1011.8 0.0
04/02:30am SSE 1 4 - - - - 10 - - 9.9 1012.3 0.0
04/02:00am W 4 7 - - - - 10 - - 9.1 1012.8 0.0
04/01:30am SSW 1 4 - - - - 10 - - 8.4 1013.1 0.0
04/01:00am W 1 5 - - - - 10 - - 9.3 1013.3 0.0
04/12:30am ESE 3 4 - - - - 10 - - 9.3 1013.4 0.0
04/12:00am NNW 5 6 - - - - 10 - - 12.8 1013.5 0.0
 
Date/Time
EST
Wind Sea
Height
m
Swell Vis
km
Cloud Weather Temp
°C
Press
hPa
Rain since
9am
mm
Dir  Spd
kts
Gust
kts
Height
m
Period
s
Dir
03/11:30pm NW 5 9 - - - - 10 - - 13.6 1013.6 0.0
03/11:00pm NNW 5 6 - - - - 10 - - 13.1 1013.9 0.0
03/10:30pm SSW 4 6 - - - - 10 - - 11.8 1013.9 0.0
03/10:00pm WSW 5 8 - - - - 10 - - 12.2 1014.2 0.0
03/09:30pm WSW 4 6 - - - - 10 - - 13.4 1014.1 0.0
03/09:00pm WSW 8 10 - - - - 10 Cloudy - 14.4 1014.2 0.0
03/08:30pm W 10 11 - - - - 10 - - 15.6 1014.3 0.0
03/08:00pm WNW 10 14 - - - - 10 - - 16.8 1014.4 0.0
03/07:30pm NW 10 15 - - - - 10 - - 17.4 1014.3 0.0
03/07:00pm WNW 7 11 - - - - 10 - - 17.0 1014.4 0.0
03/06:30pm W 7 11 - - - - 10 - - 15.4 1014.3 0.0
03/06:00pm WSW 8 12 - - - - 10 - - 15.6 1014.4 0.0
03/05:30pm W 7 8 - - - - 10 - - 15.6 1014.2 0.0
03/05:00pm W 10 14 - - - - 10 - - 18.3 1014.1 0.0
03/04:30pm W 8 13 - - - - 10 - - 19.6 1013.8 0.0
03/04:00pm W 10 14 - - - - 10 - - 20.6 1013.7 0.0
03/03:30pm W 10 13 - - - - 10 - - 20.9 1013.7 0.0
03/03:00pm W 7 9 - - - - 10 - - 21.5 1013.9 0.0
03/02:30pm W 9 12 - - - - 10 - - 21.6 1014.0 0.0
03/02:00pm W 8 12 - - - - 10 - - 21.7 1014.4 0.0
03/01:30pm ENE 3 6 - - - - 10 - - 21.8 1014.6 0.0
03/01:00pm W 1 4 - - - - 10 - - 21.6 1014.9 0.0
03/12:30pm NNE 3 5 - - - - 10 - - 21.2 1015.5 0.0
03/12:00pm NW 3 5 - - - - 10 - - 20.5 1016.2 0.0
03/11:30am NE 3 5 - - - - 10 - - 19.6 1016.9 0.0
03/11:00am SSW 4 6 - - - - 10 - - 18.0 1017.4 0.0
03/10:30am SW 1 4 - - - - 10 - - 16.9 1018.0 0.0
03/10:00am SW 1 3 - - - - 10 - - 14.2 1018.5 0.0
03/09:30am CALM 0 3 - - - - 10 - - 11.1 1018.9 0.0
03/09:00am CALM 0 0 - - - - 10 - - 9.1 1019.1 0.2
03/08:30am SW 2 5 - - - - 10 - - 6.3 1019.3 0.2
03/08:00am CALM 0 0 - - - - 10 - - 4.6 1019.4 0.2
03/07:30am SW 1 4 - - - - 10 - - 2.6 1019.4 0.2
03/07:00am SW 3 4 - - - - 10 - - 2.0 1019.5 0.2
03/06:30am CALM 0 0 - - - - 10 - - 2.6 1019.3 0.2
03/06:00am W 3 6 - - - - 10 - - 3.4 1019.4 0.2
03/05:30am WNW 5 7 - - - - 10 - - 4.1 1019.1 0.2
03/05:00am W 3 7 - - - - 10 - - 4.2 1019.2 0.2
03/04:30am SW 2 5 - - - - 10 - - 3.1 1019.2 0.2
03/04:00am WSW 1 3 - - - - 10 - - 3.6 1019.5 0.2
03/03:30am WSW 3 5 - - - - 10 - - 3.4 1019.8 0.2
03/03:00am WSW 3 6 - - - - 10 - Recent precip. 3.9 1020.3 0.2
03/02:30am WSW 3 5 - - - - 10 - - 3.7 1020.6 0.0
03/02:00am W 3 5 - - - - 10 - - 3.6 1020.9 0.0
03/01:30am WSW 1 5 - - - - 10 - - 4.0 1021.3 0.0
03/01:00am CALM 0 0 - - - - 10 - - 4.2 1021.6 0.0
03/12:30am CALM 0 0 - - - - 10 - - 4.9 1022.0 0.0
03/12:00am WSW 2 4 - - - - 10 - - 5.1 1022.2 0.0
 
Date/Time
EST
Wind Sea
Height
m
Swell Vis
km
Cloud Weather Temp
°C
Press
hPa
Rain since
9am
mm
Dir  Spd
kts
Gust
kts
Height
m
Period
s
Dir
02/11:30pm CALM 0 0 - - - - 10 - - 4.9 1022.5 0.0
02/11:00pm WSW 1 4 - - - - 10 - - 5.5 1022.6 0.0
02/10:30pm WSW 1 3 - - - - 10 - - 6.0 1022.8 0.0
02/10:00pm WSW 4 4 - - - - 10 - - 6.5 1022.8 0.0
02/09:30pm WSW 2 3 - - - - 10 - - 6.7 1022.9 0.0
02/09:00pm W 4 5 - - - - 10 - - 7.2 1023.1 0.0
02/08:30pm CALM 0 0 - - - - 10 - - 7.9 1023.2 0.0
02/08:00pm WSW 2 3 - - - - 10 - - 8.4 1023.3 0.0
02/07:30pm W 4 5 - - - - 10 - - 8.9 1023.3 0.0
02/07:00pm W 4 5 - - - - 10 - - 9.6 1023.3 0.0
02/06:30pm W 3 4 - - - - 10 - - 10.5 1023.1 0.0
02/06:00pm W 3 4 - - - - 10 Cloudy - 11.5 1023.0 0.0
02/05:30pm CALM 0 0 - - - - 10 - - 13.0 1023.0 0.0
02/05:00pm NNE 3 4 - - - - 10 - - 15.0 1022.8 0.0
02/04:30pm NE 4 6 - - - - 10 - - 15.6 1022.8 0.0
02/04:00pm NE 5 7 - - - - 10 - - 16.1 1022.7 0.0
02/03:30pm NNE 7 8 - - - - 10 - - 16.6 1022.7 0.0
02/03:00pm NE 7 8 - - - - 10 - - 17.3 1022.7 0.0
02/02:30pm NE 8 9 - - - - 10 - - 17.3 1022.5 0.0
02/02:00pm NE 7 10 - - - - 10 - - 17.5 1022.8 0.0
02/01:30pm ENE 7 9 - - - - 10 - - 18.3 1022.8 0.0
02/01:00pm NE 9 11 - - - - 10 - - 18.1 1023.2 0.0
02/12:30pm NE 8 10 - - - - 10 - - 17.8 1023.6 0.0
02/12:00pm NE 6 7 - - - - 10 - - 18.0 1023.9 0.0
02/11:30am NE 3 7 - - - - 10 - - 18.5 1024.2 0.0
02/11:00am NE 3 5 - - - - 10 - - 17.5 1024.7 0.0
02/10:30am NE 3 5 - - - - 10 - - 16.8 1025.1 0.0
02/10:00am SE 3 4 - - - - 10 - - 16.0 1025.2 0.0
02/09:30am CALM 0 3 - - - - 10 - - 14.3 1025.2 0.0
02/09:00am CALM 0 0 - - - - 10 - - 10.7 1025.2 0.0
02/08:30am NW 2 4 - - - - 10 - - 8.1 1025.1 0.0
02/08:00am CALM 0 0 - - - - 10 - - 5.3 1025.1 0.0
02/07:30am SW 4 5 - - - - 10 - - 3.3 1024.9 0.0
02/07:00am SW 3 5 - - - - 10 - - 2.6 1024.6 0.0
02/06:30am SW 3 4 - - - - 10 - - 2.3 1024.4 0.0
02/06:00am SW 1 5 - - - - 10 - - 2.6 1024.0 0.0
02/05:30am SW 2 5 - - - - 10 - - 2.7 1023.7 0.0
02/05:00am CALM 0 0 - - - - 10 - - 3.1 1023.4 0.0
02/04:30am CALM 0 0 - - - - 10 - - 3.2 1023.2 0.0
02/04:00am SW 1 4 - - - - 10 - - 3.4 1023.1 0.0
02/03:30am SW 3 5 - - - - 10 - - 3.4 1023.1 0.0
02/03:00am SW 1 4 - - - - 10 - - 3.5 1023.2 0.0
02/02:30am CALM 0 3 - - - - 10 - - 4.0 1023.4 0.0
02/02:00am SW 1 3 - - - - 10 - - 3.9 1023.5 0.0
02/01:30am WNW 3 4 - - - - 10 - - 4.7 1023.7 0.0
02/01:00am WSW 3 4 - - - - 10 - - 4.4 1023.7 0.0
02/12:30am W 1 3 - - - - 10 - - 4.5 1023.8 0.0
02/12:00am CALM 0 0 - - - - 10 - - 4.9 1024.0 0.0
 
Date/Time
EST
Wind Sea
Height
m
Swell Vis
km
Cloud Weather Temp
°C
Press
hPa
Rain since
9am
mm
Dir  Spd
kts
Gust
kts
Height
m
Period
s
Dir
01/11:38pm W 1 3 - - - - 10 - - 4.9 1024.0 0.0
01/11:30pm CALM 0 3 - - - - 7 - - 5.3 1024.1 0.0
01/11:09pm SW 1 3 - - - - 5 - - 5.2 1024.0 0.0
01/11:00pm SW 1 4 - - - - 10 - - 5.5 1024.1 0.0
01/10:30pm CALM 0 0 - - - - 10 - - 6.0 1024.2 0.0
01/10:00pm CALM 0 0 - - - - 10 - - 7.0 1024.3 0.0
01/09:30pm SW 3 4 - - - - 10 - - 7.3 1024.2 0.0
01/09:00pm SW 3 5 - - - - 10 - - 8.0 1024.2 0.0
01/08:30pm CALM 0 0 - - - - 10 - - 8.7 1024.2 0.0
01/08:00pm W 6 8 - - - - 10 - - 9.2 1024.0 0.0
01/07:30pm W 5 6 - - - - 10 - - 9.8 1024.0 0.0
01/07:00pm W 7 8 - - - - 10 - - 10.2 1023.8 0.0
01/06:30pm SW 5 6 - - - - 10 - - 10.6 1023.6 0.0
01/06:00pm SW 4 4 - - - - 10 - - 12.1 1023.3 0.0
01/05:30pm W 4 7 - - - - 10 - - 13.3 1023.2 0.0
01/05:00pm NE 3 4 - - - - 10 - - 16.1 1022.9 0.0
01/04:30pm NE 6 7 - - - - 10 - - 17.2 1022.7 0.0

Other formats

Comma delimited format used in spreadsheet applications
http://www.bom.gov.au/fwo/IDN60701/IDN60701.95748.axf

JavaScript Object Notation format (JSON) in row-major order
http://www.bom.gov.au/fwo/IDN60701/IDN60701.95748.json

Data quality

Most of these data are generated automatically and are frequently updated. Quality checks on data are not normally performed. It is possible for incorrect values to appear. Refer to information at About Latest Weather Observations and please check the disclaimer before using these data.